Latest Weather Observations for Avalon

IDV60901

Issued at 8:31 am EDT Friday 20 January 2017 (issued every 10 minutes, with the page automatically refreshed every 10 minutes)

About weather observations | Map of Melbourne area stations | Latest observations for Melbourne area | Other Formats
Station Details ID: 087113 Name: AVALON AIRPORT Lat: -38.03 Lon: 144.48 Height: 10.6 m
Data from the previous 72 hours. | See also: Recent months at Avalon
Date/Time
EDT
Temp
°C
App
Temp
°C
Dew
Point
°C
Rel
Hum
%
Delta-T
°C
Wind Press
QNH
hPa
Press
MSL
hPa
Rain since
9am
mm
Dir  Spd
km/h
Gust
km/h
Spd
kts
Gust
kts
20/08:30am 17.2 13.6 17.2 100 0.0 W 32 43 17 23 995.0 995.0 -
20/08:24am 17.0 13.7 17.0 100 0.0 WNW 30 39 16 21 994.7 994.7 -
20/08:20am 16.8 13.4 16.8 100 0.0 WNW 30 39 16 21 994.6 994.6 -
20/08:00am 16.3 15.6 16.3 100 0.0 WNW 15 19 8 10 994.7 994.7 -
20/07:54am 16.3 15.9 16.3 100 0.0 WNW 13 17 7 9 994.4 994.4 -
20/07:30am 16.1 16.0 16.1 100 0.0 N 11 15 6 8 993.7 993.7 -
20/07:00am 15.8 14.9 15.8 100 0.0 N 15 24 8 13 992.8 992.8 -
20/06:30am 15.6 13.3 15.6 100 0.0 NNE 22 30 12 16 992.2 992.2 -
20/06:00am 15.8 12.8 15.8 100 0.0 NNE 26 33 14 18 992.9 992.9 -
20/05:30am 15.7 13.0 15.7 100 0.0 NE 24 30 13 16 993.5 993.5 -
20/05:05am 15.5 13.1 15.5 100 0.0 ENE 22 28 12 15 994.2 994.2 -
20/05:00am 15.5 13.5 15.5 100 0.0 ENE 20 26 11 14 994.8 994.8 -
20/04:51am 15.5 13.7 15.5 100 0.0 ENE 19 22 10 12 995.7 995.7 -
20/04:30am 15.4 17.2 15.4 100 0.0 CALM 0 0 0 0 997.7 997.7 -
20/04:00am 15.3 14.9 15.3 100 0.0 SW 11 15 6 8 999.3 999.3 -
20/03:30am 16.4 16.5 16.4 100 0.0 SW 11 17 6 9 1000.0 1000.0 -
20/03:28am 16.4 16.1 16.4 100 0.0 SW 13 17 7 9 1000.0 1000.0 -
20/03:08am 16.8 16.3 16.8 100 0.0 WSW 15 19 8 10 1000.6 1000.6 -
20/03:04am 16.9 16.0 16.9 100 0.0 W 17 26 9 14 1000.7 1000.7 -
20/03:00am 17.0 15.6 17.0 100 0.0 W 20 28 11 15 1001.0 1001.0 10.0
20/02:54am 17.0 16.2 17.0 100 0.0 W 17 28 9 15 1001.5 1001.5 -
20/02:30am 17.3 16.2 17.3 100 0.0 SW 19 26 10 14 1001.5 1001.5 -
20/02:00am 17.3 14.4 17.1 99 0.1 SW 28 41 15 22 1002.7 1002.7 -
20/01:42am 17.5 12.6 16.4 93 0.7 WSW 37 56 20 30 1002.4 1002.4 -
20/01:39am 17.5 13.3 15.8 90 1.0 WSW 32 52 17 28 1002.0 1002.0 -
20/01:30am 17.7 15.4 14.2 80 2.0 W 19 30 10 16 1000.4 1000.4 -
20/01:26am 17.9 16.5 14.4 80 2.0 W 15 24 8 13 999.7 999.7 -
20/01:00am 17.0 16.4 13.5 80 2.0 NW 9 11 5 6 997.7 997.7 -
20/12:30am 16.8 17.2 13.7 82 1.8 N 4 9 2 5 998.0 998.0 -
20/12:00am 16.8 18.0 13.9 83 1.7 CALM 0 0 0 0 999.0 999.0 -
 
Date/Time
EDT
Temp
°C
App
Temp
°C
Dew
Point
°C
Rel
Hum
%
Delta-T
°C
Wind Press
QNH
hPa
Press
MSL
hPa
Rain since
9am
mm
Dir  Spd
km/h
Gust
km/h
Spd
kts
Gust
kts
19/11:30pm 17.3 17.4 14.4 83 1.7 WNW 7 9 4 5 999.6 999.6 -
19/11:00pm 17.2 16.5 14.3 83 1.7 NW 11 13 6 7 1000.5 1000.5 -
19/10:30pm 17.0 17.2 14.1 83 1.7 NW 6 7 3 4 1000.9 1000.9 -
19/10:00pm 17.9 17.6 14.4 80 2.0 WSW 9 11 5 6 1002.3 1002.3 -
19/09:30pm 18.3 19.7 14.4 78 2.2 CALM 0 0 0 0 1002.8 1002.8 -
19/09:00pm 18.7 18.4 14.4 76 2.5 SSW 9 15 5 8 1003.4 1003.4 0.0
19/08:30pm 19.0 17.5 14.1 73 2.8 SSE 15 20 8 11 1003.7 1003.7 -
19/08:00pm 18.9 16.3 13.3 70 3.2 S 19 24 10 13 1004.6 1004.6 -
19/07:30pm 19.6 15.9 12.6 64 3.9 S 24 32 13 17 1005.1 1005.1 -
19/07:00pm 20.0 16.1 12.0 60 4.5 S 24 32 13 17 1005.8 1005.8 -
19/06:30pm 21.7 16.8 12.5 56 5.2 S 30 37 16 20 1006.0 1006.0 -
19/06:00pm 21.7 16.6 12.0 54 5.5 S 30 35 16 19 1006.3 1006.3 -
19/05:30pm 21.1 16.9 11.2 53 5.5 S 24 32 13 17 1006.8 1006.8 -
19/05:00pm 21.4 17.4 10.6 50 5.9 S 22 32 12 17 1007.5 1007.5 -
19/04:30pm 23.8 19.7 11.5 46 6.9 S 24 35 13 19 1007.5 1007.5 -
19/04:00pm 23.2 19.6 8.5 39 7.8 SE 17 26 9 14 1008.5 1008.5 -
19/03:30pm 23.0 19.3 7.9 38 7.9 ESE 17 26 9 14 1009.1 1009.1 -
19/03:00pm 22.8 19.1 8.1 39 7.8 SE 17 30 9 16 1009.6 1009.6 0.0
19/02:30pm 22.3 18.4 8.8 42 7.2 SE 19 26 10 14 1010.2 1010.2 -
19/02:00pm 21.7 17.9 8.9 44 6.8 SE 19 28 10 15 1010.7 1010.7 -
19/01:30pm 20.7 16.9 7.7 43 6.7 SSE 17 22 9 12 1011.4 1011.4 -
19/01:00pm 20.4 17.2 8.4 46 6.3 SE 15 24 8 13 1011.7 1011.7 -
19/12:30pm 20.3 17.3 9.2 49 5.9 SE 15 24 8 13 1012.3 1012.3 -
19/12:00pm 19.8 - 8.2 47 6.0 - - - - - 1012.9 1012.9 -
19/11:30am 18.9 15.7 8.3 50 5.5 ESE 15 28 8 15 1013.2 1013.2 0.0
19/11:00am 18.8 15.7 9.0 53 5.1 ESE 15 24 8 13 1013.3 1013.3 0.0
19/10:30am 18.2 14.2 9.0 55 4.8 SE 20 28 11 15 1013.7 1013.7 0.0
19/10:00am 17.3 13.9 9.0 58 4.3 SE 17 22 9 12 1013.9 1013.9 0.0
19/09:30am 17.1 13.6 8.8 58 4.3 SSE 17 22 9 12 1014.3 1014.3 0.0
19/09:00am 16.7 13.2 8.7 59 4.1 SSE 17 24 9 13 1014.6 1014.6 0.0
19/08:30am 16.6 13.0 8.3 58 4.2 SSE 17 22 9 12 1014.8 1014.8 0.0
19/08:00am 16.1 12.6 8.6 61 3.8 SSE 17 20 9 11 1014.9 1014.9 0.0
19/07:30am 15.4 12.2 8.4 63 3.5 SE 15 19 8 10 1014.9 1014.9 0.0
19/07:00am 14.0 11.2 8.6 70 2.7 SSE 13 17 7 9 1014.9 1014.9 0.0
19/06:30am 12.6 10.1 8.1 74 2.2 SSE 11 13 6 7 1014.9 1014.9 0.0
19/06:00am 13.0 10.2 8.5 74 2.2 SSE 13 17 7 9 1014.6 1014.6 0.0
19/05:30am 12.5 10.4 8.4 76 2.0 SSE 9 13 5 7 1014.8 1014.8 0.0
19/05:00am 12.8 10.4 8.7 76 2.0 SSE 11 15 6 8 1014.7 1014.7 0.0
19/04:30am 12.8 10.5 8.9 77 2.0 SSE 11 13 6 7 1014.8 1014.8 0.0
19/04:00am 12.4 9.5 8.3 76 2.0 SSE 13 17 7 9 1015.2 1015.2 0.0
19/03:30am 13.1 9.6 8.6 74 2.2 SSE 17 24 9 13 1015.3 1015.3 0.0
19/03:00am 12.8 9.6 8.5 75 2.1 SSE 15 19 8 10 1015.7 1015.7 0.0
19/02:30am 13.0 9.9 8.7 75 2.2 SSE 15 22 8 12 1016.1 1016.1 0.0
19/02:00am 12.5 9.2 8.0 74 2.2 SSE 15 20 8 11 1016.4 1016.4 0.0
19/01:30am 12.9 9.2 7.8 71 2.5 S 17 22 9 12 1016.7 1016.7 0.0
19/01:00am 13.1 9.0 7.8 70 2.6 SSE 19 28 10 15 1016.7 1016.7 0.0
19/12:30am 13.7 9.6 8.7 72 2.5 SSE 20 28 11 15 1016.9 1016.9 0.0
19/12:00am 13.4 9.8 8.5 72 2.4 SSE 17 24 9 13 1017.2 1017.2 0.0
 
Date/Time
EDT
Temp
°C
App
Temp
°C
Dew
Point
°C
Rel
Hum
%
Delta-T
°C
Wind Press
QNH
hPa
Press
MSL
hPa
Rain since
9am
mm
Dir  Spd
km/h
Gust
km/h
Spd
kts
Gust
kts
18/11:30pm 13.6 9.6 8.4 71 2.6 SSE 19 26 10 14 1017.4 1017.4 0.0
18/11:00pm 14.1 10.0 8.7 70 2.7 SSE 20 28 11 15 1017.6 1017.6 0.0
18/10:30pm 14.4 10.3 8.8 69 2.8 SSE 20 30 11 16 1017.5 1017.5 0.0
18/10:00pm 14.5 10.4 8.7 68 2.9 SSE 20 28 11 15 1017.5 1017.5 0.0
18/09:30pm 14.9 10.1 8.8 67 3.1 SSE 24 32 13 17 1017.3 1017.3 0.0
18/09:00pm 15.0 10.7 8.0 63 3.5 SSE 20 30 11 16 1017.2 1017.2 0.0
18/08:30pm 15.9 10.5 8.2 60 3.9 SSE 26 35 14 19 1017.2 1017.2 0.0
18/08:00pm 16.7 11.0 8.4 58 4.2 S 28 35 15 19 1017.1 1017.1 0.0
18/07:30pm 17.8 11.8 7.2 50 5.3 S 28 35 15 19 1016.8 1016.8 0.0
18/07:00pm 18.1 11.7 6.9 48 5.6 S 30 35 16 19 1016.5 1016.5 0.0
18/06:30pm 18.6 12.1 6.4 45 6.1 S 30 37 16 20 1016.5 1016.5 0.0
18/06:00pm 19.1 12.2 4.8 39 6.9 S 30 39 16 21 1016.2 1016.2 0.0
18/05:30pm 19.2 11.9 7.3 46 6.0 S 35 44 19 24 1016.2 1016.2 0.0
18/05:00pm 19.4 12.1 7.2 45 6.2 S 35 48 19 26 1016.2 1016.2 0.0
18/04:30pm 19.8 12.7 7.9 46 6.1 S 35 46 19 25 1016.2 1016.2 0.0
18/04:00pm 20.2 13.0 7.6 44 6.5 SSW 35 50 19 27 1016.1 1016.1 0.0
18/03:30pm 21.5 14.2 8.7 44 6.8 S 37 44 20 24 1016.0 1016.0 0.0
18/03:00pm 20.7 13.5 7.7 43 6.7 S 35 52 19 28 1016.0 1016.0 0.0
18/02:30pm 21.2 14.5 8.1 43 6.8 S 33 44 18 24 1016.1 1016.1 0.0
18/02:00pm 20.9 13.8 8.2 44 6.6 S 35 48 19 26 1016.0 1016.0 0.0
18/01:30pm 21.7 15.0 9.6 46 6.5 S 35 46 19 25 1016.2 1016.2 0.0
18/01:00pm 20.4 13.1 8.7 47 6.1 S 37 50 20 27 1016.0 1016.0 0.0
18/12:30pm 20.8 13.9 8.8 46 6.3 S 35 44 19 24 1015.6 1015.6 0.0
18/12:00pm 20.9 13.9 6.8 40 7.2 S 33 44 18 24 1015.5 1015.5 0.0
18/11:30am 20.0 13.1 8.7 48 5.9 S 35 50 19 27 1015.4 1015.4 0.0
18/11:00am 18.7 12.5 9.5 55 4.8 SSW 32 43 17 23 1015.2 1015.2 0.0
18/10:30am 19.0 13.4 8.9 52 5.3 SSW 28 39 15 21 1014.7 1014.7 0.0
18/10:00am 20.0 14.1 7.7 45 6.3 SSW 28 39 15 21 1014.4 1014.4 0.0
18/09:30am 18.0 12.6 9.4 57 4.5 SSW 28 35 15 19 1014.2 1014.2 0.0
18/09:00am 18.0 12.7 8.6 54 4.9 SSW 26 39 14 21 1014.0 1014.0 0.0
18/08:30am 18.1 11.8 8.9 55 4.8 SSW 32 39 17 21 1013.6 1013.6 0.0
18/08:00am 16.7 11.0 9.9 64 3.6 SW 30 39 16 21 1013.4 1013.4 0.0
18/07:30am 16.8 10.9 10.6 67 3.3 SSW 32 39 17 21 1012.8 1012.8 0.0
18/07:00am 16.6 11.1 10.7 68 3.1 SW 30 39 16 21 1012.4 1012.4 0.0
18/06:30am 16.3 11.5 11.5 73 2.6 SW 28 35 15 19 1011.5 1011.5 0.0
18/06:00am 16.3 11.3 12.3 77 2.2 SSW 30 41 16 22 1011.0 1011.0 0.0
18/05:30am 15.9 10.6 13.0 83 1.6 SSW 33 43 18 23 1010.3 1010.3 0.0
18/05:00am 15.9 12.0 14.3 90 0.9 SSW 28 37 15 20 1009.9 1009.9 0.0
18/04:47am 17.4 15.9 15.2 87 1.3 SSW 17 20 9 11 1008.8 1008.8 0.0
18/04:30am 17.2 16.5 15.4 89 1.1 SSW 13 20 7 11 1009.1 1009.1 0.0
18/04:00am 17.6 17.3 16.5 93 0.7 SSW 13 17 7 9 1009.3 1009.3 0.0
18/03:30am 17.8 17.4 16.1 90 1.0 SSW 13 17 7 9 1008.8 1008.8 0.0
18/03:00am 18.4 18.2 15.6 84 1.7 SSW 11 15 6 8 1009.6 1009.6 0.0
18/02:30am 18.7 17.7 15.6 82 1.8 SSW 15 22 8 12 1009.7 1009.7 0.0
18/02:00am 19.0 18.1 15.9 82 1.8 SW 15 19 8 10 1010.1 1010.1 0.0
18/01:30am 19.0 19.0 15.3 79 2.2 WSW 9 17 5 9 1010.1 1010.1 0.0
18/01:00am 18.8 19.5 15.5 81 1.9 W 6 7 3 4 1010.0 1010.0 0.0
18/12:30am 19.0 19.1 15.5 80 2.1 W 9 13 5 7 1010.3 1010.3 0.0
18/12:00am 19.3 19.9 15.8 80 2.1 W 7 9 4 5 1010.4 1010.4 0.0
 
Date/Time
EDT
Temp
°C
App
Temp
°C
Dew
Point
°C
Rel
Hum
%
Delta-T
°C
Wind Press
QNH
hPa
Press
MSL
hPa
Rain since
9am
mm
Dir  Spd
km/h
Gust
km/h
Spd
kts
Gust
kts
17/11:30pm 19.2 19.0 15.7 80 2.1 SSW 11 15 6 8 1010.4 1010.4 0.0
17/11:00pm 19.4 16.7 15.7 79 2.2 SSW 24 35 13 19 1010.5 1010.5 0.0
17/10:30pm 19.9 16.8 15.5 76 2.6 SSW 26 33 14 18 1009.9 1009.9 0.0
17/10:00pm 20.3 16.7 15.3 73 3.0 S 28 35 15 19 1009.5 1009.5 0.0
17/09:30pm 21.0 16.4 14.6 67 3.7 S 32 39 17 21 1008.8 1008.8 0.0
17/09:00pm 21.4 18.8 13.8 62 4.4 SSW 20 28 11 15 1008.1 1008.1 0.0
17/08:30pm 21.9 18.0 13.3 58 4.9 SSW 26 32 14 17 1007.3 1007.3 0.0
17/08:00pm 22.5 17.7 13.0 55 5.5 SSW 30 35 16 19 1006.6 1006.6 0.0
17/07:30pm 22.8 19.8 12.4 52 5.9 SSW 20 28 11 15 1005.8 1005.8 0.0
17/07:00pm 23.4 20.0 12.4 50 6.3 S 22 28 12 15 1005.1 1005.1 0.0
17/06:30pm 24.0 19.5 12.6 49 6.5 S 28 35 15 19 1005.0 1005.0 0.0
17/06:00pm 26.8 22.8 11.7 39 8.7 S 24 35 13 19 1005.1 1005.1 0.0
17/05:30pm 28.2 24.9 11.7 36 9.5 SE 20 26 11 14 1004.9 1004.9 0.0
17/05:00pm 29.7 25.5 11.2 31 10.7 SSE 24 30 13 16 1005.0 1005.0 0.0
17/04:30pm 30.1 26.9 13.0 35 10.1 SE 22 28 12 15 1005.0 1005.0 0.0
17/04:00pm 32.8 29.0 11.3 27 12.6 NE 22 37 12 20 1005.1 1005.1 0.0
17/03:55pm 33.2 27.7 10.5 25 13.1 NW 30 50 16 27 1004.9 1004.9 0.0
17/03:46pm 38.4 30.8 2.8 11 18.7 WNW 32 50 17 27 1004.4 1004.4 0.0
17/03:30pm 38.9 31.7 3.1 11 19.0 WNW 30 41 16 22 1004.7 1004.7 0.0
17/03:00pm 36.9 31.4 4.0 13 17.6 W 22 33 12 18 1005.3 1005.3 0.0
17/02:30pm 36.2 29.5 5.5 15 16.7 W 30 39 16 21 1005.7 1005.7 0.0
17/02:00pm 36.0 30.9 6.2 16 16.4 W 22 32 12 17 1006.1 1006.1 0.0
17/01:30pm 33.0 30.0 9.1 23 13.5 SE 15 20 8 11 1007.0 1007.0 0.0
17/01:00pm 32.9 28.9 8.4 22 13.7 SE 19 26 10 14 1007.2 1007.2 0.0
17/12:30pm 31.3 28.7 9.5 26 12.3 SSE 13 17 7 9 1007.5 1007.5 0.0
17/12:00pm 30.7 28.2 11.1 30 11.3 SSE 15 19 8 10 1007.8 1007.8 0.0
17/11:30am 28.9 28.1 15.1 43 8.4 SE 13 19 7 10 1007.8 1007.8 0.0
17/11:00am 29.2 27.8 13.4 38 9.4 ESE 13 20 7 11 1007.9 1007.9 0.0
17/10:30am 29.2 28.9 13.4 38 9.4 SE 7 15 4 8 1008.2 1008.2 0.0
17/10:00am 26.9 26.5 9.7 34 9.5 W 2 6 1 3 1008.4 1008.4 0.0
17/09:30am 25.8 26.2 11.2 40 8.3 CALM 0 7 0 4 1008.7 1008.7 0.0
17/09:00am 24.8 23.6 11.7 44 7.4 WNW 9 11 5 6 1009.0 1009.0 0.0

Latest Capital City Observations: Canberra | Sydney | Melbourne | Brisbane | Adelaide | Perth | Hobart | Darwin

Other Formats:

Comma delimited format used in spreadsheet applications
http://www.bom.gov.au/fwo/IDV60901/IDV60901.94854.axf

JavaScript Object Notation format (JSON) in row-major order
http://www.bom.gov.au/fwo/IDV60901/IDV60901.94854.json